createdAt,value
2023-01-10T00:00:15.993Z,96064.19
2023-01-10T00:02:44.611Z,96413.28
2023-01-10T00:05:12.813Z,96438.97
2023-01-10T00:07:41.014Z,96443.28
2023-01-10T00:10:12.022Z,96440.84
2023-01-10T00:12:57.747Z,96422.97
2023-01-10T00:15:25.934Z,96428.22
2023-01-10T00:17:54.089Z,96447.53
2023-01-10T00:20:22.359Z,96431.50
2023-01-10T00:22:51.158Z,96442.28
2023-01-10T00:25:21.411Z,96440.44
2023-01-10T00:27:55.362Z,96428.06
2023-01-10T00:30:23.547Z,96463.31
2023-01-10T00:32:51.669Z,96455.50
2023-01-10T00:35:20.268Z,96429.31
2023-01-10T00:37:48.491Z,96454.75
2023-01-10T00:40:16.708Z,96386.75
2023-01-10T00:43:03.681Z,96328.81
2023-01-10T00:45:31.808Z,96475.88
2023-01-10T00:48:00.030Z,96446.84
2023-01-10T00:50:28.143Z,96478.50
2023-01-10T00:52:56.304Z,96463.75
2023-01-10T00:55:24.528Z,96475.72
2023-01-10T00:57:54.114Z,96487.09
2023-01-10T01:00:22.354Z,96487.00
2023-01-10T01:02:51.790Z,96486.16
2023-01-10T01:05:20.764Z,96497.47
2023-01-10T01:07:49.731Z,96488.97
2023-01-10T01:10:27.511Z,96462.59
2023-01-10T01:12:58.791Z,96488.69
2023-01-10T01:15:28.369Z,96437.59
2023-01-10T01:17:56.887Z,96448.88
2023-01-10T01:20:25.122Z,96507.84
2023-01-10T01:22:53.346Z,96508.66
2023-01-10T01:25:21.659Z,96519.81
2023-01-10T01:27:49.949Z,96518.31
2023-01-10T01:30:19.757Z,96514.91
2023-01-10T01:32:47.946Z,96514.94
2023-01-10T01:35:17.364Z,96477.59
2023-01-10T01:37:46.214Z,96527.16
2023-01-10T01:40:15.494Z,96508.31
2023-01-10T01:42:44.152Z,96510.94
2023-01-10T01:45:35.925Z,96453.88
2023-01-10T01:48:10.969Z,96500.66
2023-01-10T01:50:44.578Z,96537.47
2023-01-10T01:53:18.295Z,96534.88
2023-01-10T01:55:48.504Z,96528.00
2023-01-10T01:58:23.675Z,96506.78
2023-01-10T02:00:53.360Z,96527.81
2023-01-10T02:03:21.577Z,96543.38
2023-01-10T02:05:49.973Z,96511.53
2023-01-10T02:08:18.220Z,96531.22
2023-01-10T02:10:53.980Z,96527.72
2023-01-10T02:13:25.587Z,96530.38
2023-01-10T02:15:55.461Z,96526.81
2023-01-10T02:18:24.797Z,96536.22
2023-01-10T02:21:16.853Z,96538.81
2023-01-10T02:24:26.929Z,96534.53
2023-01-10T02:27:16.610Z,96513.56
2023-01-10T02:30:23.174Z,96515.44
2023-01-10T02:33:05.107Z,96511.03
2023-01-10T02:35:57.691Z,96520.91
2023-01-10T02:38:37.715Z,96509.31
2023-01-10T02:41:16.461Z,96469.00
2023-01-10T02:43:51.887Z,96517.75
2023-01-10T02:46:25.567Z,96514.09
2023-01-10T02:48:56.098Z,96515.59
2023-01-10T02:51:27.299Z,96516.13
2023-01-10T02:54:00.710Z,96519.31
2023-01-10T02:57:16.122Z,96503.03
2023-01-10T03:00:05.346Z,96514.72
2023-01-10T03:02:49.766Z,96504.94
2023-01-10T03:05:30.487Z,96527.91
2023-01-10T03:08:08.579Z,96531.69
2023-01-10T03:10:43.608Z,96547.06
2023-01-10T03:13:17.470Z,96532.28
2023-01-10T03:15:49.487Z,96463.00
2023-01-10T03:18:22.208Z,96513.41
2023-01-10T03:20:53.880Z,96533.00
2023-01-10T03:23:24.384Z,96545.94
2023-01-10T03:25:56.626Z,96551.16
2023-01-10T03:28:30.750Z,96559.34
2023-01-10T03:31:03.488Z,96558.38
2023-01-10T03:33:34.331Z,96561.16
2023-01-10T03:36:16.803Z,96534.59
2023-01-10T03:38:51.807Z,96549.13
2023-01-10T03:41:31.193Z,96549.88
2023-01-10T03:44:26.095Z,96530.97
2023-01-10T03:46:58.618Z,96556.19
2023-01-10T03:49:30.312Z,96538.34
2023-01-10T03:52:00.177Z,96584.84
2023-01-10T03:54:28.390Z,96595.81
2023-01-10T03:56:56.535Z,96602.06
2023-01-10T03:59:26.968Z,96506.63
2023-01-10T04:01:56.471Z,96604.00
2023-01-10T04:04:24.863Z,96612.91
2023-01-10T04:06:53.118Z,96620.88
2023-01-10T04:09:22.920Z,96578.13
2023-01-10T04:11:51.129Z,96551.84
2023-01-10T04:14:19.374Z,96625.94
2023-01-10T04:16:47.553Z,96623.22
2023-01-10T04:19:15.778Z,96625.75
2023-01-10T04:21:43.959Z,96605.31
2023-01-10T04:24:12.206Z,96632.47
2023-01-10T04:26:41.787Z,96636.63
2023-01-10T04:29:10.079Z,96589.22
2023-01-10T04:31:40.115Z,96646.22
2023-01-10T04:34:08.579Z,96574.63
2023-01-10T04:36:37.676Z,96598.75
2023-01-10T04:39:06.269Z,96651.91
2023-01-10T04:41:34.403Z,96666.34
2023-01-10T04:44:04.041Z,96641.59
2023-01-10T04:46:32.392Z,96660.22
2023-01-10T04:49:01.077Z,96620.16
2023-01-10T04:51:30.079Z,96665.13
2023-01-10T04:53:58.243Z,96677.44
2023-01-10T04:56:27.084Z,96672.06
2023-01-10T04:58:55.327Z,96685.81
2023-01-10T05:01:26.689Z,96669.41
2023-01-10T05:03:56.930Z,96689.97
2023-01-10T05:06:26.144Z,96688.41
2023-01-10T05:08:54.353Z,96702.09
2023-01-10T05:11:22.573Z,96702.16
2023-01-10T05:13:50.887Z,96698.72
2023-01-10T05:16:19.257Z,96571.91
2023-01-10T05:18:48.940Z,96720.16
2023-01-10T05:21:17.238Z,96704.78
2023-01-10T05:23:45.660Z,96639.44
2023-01-10T05:26:15.570Z,96728.72
2023-01-10T05:28:44.216Z,96646.63
2023-01-10T05:31:15.095Z,96724.06
2023-01-10T05:33:46.590Z,96745.16
2023-01-10T05:36:16.626Z,96753.81
2023-01-10T05:38:45.099Z,96751.22
2023-01-10T05:41:13.417Z,96749.63
2023-01-10T05:43:41.643Z,96757.94
2023-01-10T05:46:09.979Z,96763.16
2023-01-10T05:48:38.237Z,96688.28
2023-01-10T05:51:06.980Z,96780.75
2023-01-10T05:53:36.635Z,96781.44
2023-01-10T05:56:05.389Z,96774.31
2023-01-10T05:58:33.519Z,96780.56
2023-01-10T06:01:01.832Z,96774.69
2023-01-10T06:03:29.958Z,96779.69
2023-01-10T06:05:58.485Z,96785.72
2023-01-10T06:08:27.270Z,96814.59
2023-01-10T06:10:57.000Z,96805.09
2023-01-10T06:13:25.272Z,96803.50
2023-01-10T06:15:53.538Z,96798.28
2023-01-10T06:18:22.005Z,96798.63
2023-01-10T06:20:50.268Z,96824.38
2023-01-10T06:23:18.567Z,96803.97
2023-01-10T06:25:46.836Z,96816.69
2023-01-10T06:28:16.602Z,96833.97
2023-01-10T06:30:44.957Z,96840.16
2023-01-10T06:33:13.764Z,96857.25
2023-01-10T06:35:42.210Z,96864.03
2023-01-10T06:38:10.332Z,96842.72
2023-01-10T06:40:38.529Z,96859.81
2023-01-10T06:43:06.880Z,96874.13
2023-01-10T06:45:36.506Z,96845.22
2023-01-10T06:48:05.047Z,96883.97
2023-01-10T06:50:33.194Z,96885.22
2023-01-10T06:53:04.308Z,96899.78
2023-01-10T06:55:32.937Z,96869.19
2023-01-10T06:58:03.345Z,96860.88
2023-01-10T07:00:32.618Z,96924.03
2023-01-10T07:03:03.215Z,96895.19
2023-01-10T07:05:31.479Z,96933.91
2023-01-10T07:08:01.480Z,96940.78
2023-01-10T07:10:30.165Z,96950.97
2023-01-10T07:12:58.836Z,96966.84
2023-01-10T07:15:27.330Z,96935.31
2023-01-10T07:17:57.768Z,96976.53
2023-01-10T07:20:27.878Z,96983.47
2023-01-10T07:22:57.039Z,96986.03
2023-01-10T07:25:25.495Z,96994.00
2023-01-10T07:27:55.411Z,96994.28
2023-01-10T07:30:25.497Z,96998.41
2023-01-10T07:32:57.524Z,97008.75
2023-01-10T07:35:27.443Z,97006.25
2023-01-10T07:37:55.770Z,97002.78
2023-01-10T07:40:24.076Z,97011.41
2023-01-10T07:42:58.090Z,97012.19
2023-01-10T07:45:27.128Z,97021.19
2023-01-10T07:47:58.344Z,97021.28
2023-01-10T07:50:29.423Z,97016.25
2023-01-10T07:52:58.068Z,97024.06
2023-01-10T07:55:26.431Z,97030.97
2023-01-10T07:57:54.807Z,97009.53
2023-01-10T08:00:23.548Z,97045.66
2023-01-10T08:02:55.034Z,97046.34
2023-01-10T08:05:24.251Z,97048.91
2023-01-10T08:07:55.367Z,97031.88
2023-01-10T08:10:23.666Z,97064.41
2023-01-10T08:12:51.886Z,97060.25
2023-01-10T08:15:20.069Z,97078.03
2023-01-10T08:17:48.263Z,96965.28
2023-01-10T08:20:16.826Z,97070.09
2023-01-10T08:22:45.126Z,97090.75
2023-01-10T08:25:14.772Z,97104.97
2023-01-10T08:27:43.078Z,97102.38
2023-01-10T08:30:12.739Z,97114.94
2023-01-10T08:32:41.228Z,97120.16
2023-01-10T08:35:10.268Z,97123.41
2023-01-10T08:37:39.509Z,97122.56
2023-01-10T08:40:09.408Z,97125.06
2023-01-10T08:42:39.073Z,97109.16
2023-01-10T08:45:08.298Z,97105.50
2023-01-10T08:47:36.449Z,97149.25
2023-01-10T08:50:05.942Z,97159.47
2023-01-10T08:52:35.384Z,97158.34
2023-01-10T08:55:03.551Z,97166.06
2023-01-10T08:57:32.586Z,97174.88
2023-01-10T09:00:02.285Z,97054.88
2023-01-10T09:02:30.556Z,97169.63
2023-01-10T09:04:58.828Z,97193.19
2023-01-10T09:07:28.140Z,97167.00
2023-01-10T09:09:56.407Z,97211.94
2023-01-10T09:12:42.140Z,97205.50
2023-01-10T09:15:12.660Z,97192.53
2023-01-10T09:17:41.332Z,97214.44
2023-01-10T09:20:11.142Z,97172.13
2023-01-10T09:22:39.481Z,97217.22
2023-01-10T09:25:08.727Z,97239.78
2023-01-10T09:27:37.033Z,97193.34
2023-01-10T09:30:06.033Z,97231.94
2023-01-10T09:32:35.695Z,97208.72
2023-01-10T09:35:03.930Z,97213.56
2023-01-10T09:37:33.860Z,97148.94
2023-01-10T09:40:02.200Z,97240.59
2023-01-10T09:42:44.442Z,97261.09
2023-01-10T09:45:18.576Z,97270.06
2023-01-10T09:47:55.121Z,97262.59
2023-01-10T09:50:31.220Z,97285.56
2023-01-10T09:53:06.311Z,97277.41
2023-01-10T09:55:37.646Z,97289.44
2023-01-10T09:58:12.713Z,97294.13
2023-01-10T10:00:45.524Z,97296.25
2023-01-10T10:03:26.966Z,97289.50
2023-01-10T10:06:03.784Z,97296.00
2023-01-10T10:08:39.089Z,97291.34
2023-01-10T10:11:32.364Z,97278.53
2023-01-10T10:14:05.881Z,97291.38
2023-01-10T10:16:46.931Z,97284.22
2023-01-10T10:19:28.291Z,97287.00
2023-01-10T10:22:04.335Z,97266.38
2023-01-10T10:24:48.190Z,97301.50
2023-01-10T10:27:22.858Z,97310.31
2023-01-10T10:30:23.327Z,97304.09
2023-01-10T10:33:06.265Z,97284.31
2023-01-10T10:35:40.003Z,97307.53
2023-01-10T10:38:14.576Z,97304.78
2023-01-10T10:40:46.147Z,97315.06
2023-01-10T10:43:21.992Z,97292.00
2023-01-10T10:45:55.727Z,97279.34
2023-01-10T10:48:28.524Z,97317.81
2023-01-10T10:51:08.846Z,97318.81
2023-01-10T10:53:37.547Z,97325.91
2023-01-10T10:56:08.184Z,96950.28
2023-01-10T10:58:45.259Z,97316.50
2023-01-10T11:01:15.467Z,97329.31
2023-01-10T11:03:48.506Z,97338.97
2023-01-10T11:06:20.208Z,97329.38
2023-01-10T11:08:52.282Z,97318.28
2023-01-10T11:11:25.435Z,97320.00
2023-01-10T11:13:57.087Z,97317.00
2023-01-10T11:16:31.223Z,97323.00
2023-01-10T11:19:17.026Z,97338.97
2023-01-10T11:21:51.748Z,97286.16
2023-01-10T11:24:30.072Z,97341.66
2023-01-10T11:27:00.578Z,97355.34
2023-01-10T11:29:35.706Z,97331.78
2023-01-10T11:32:10.805Z,97351.25
2023-01-10T11:34:39.079Z,97356.28
2023-01-10T11:37:21.229Z,97354.63
2023-01-10T11:39:49.458Z,97341.84
2023-01-10T11:42:30.632Z,97353.38
2023-01-10T11:45:22.935Z,97362.69
2023-01-10T11:47:55.680Z,97377.56
2023-01-10T11:50:26.253Z,97370.47
2023-01-10T11:52:57.079Z,97367.94
2023-01-10T11:55:28.819Z,97374.72
2023-01-10T11:58:02.166Z,97367.59
2023-01-10T12:00:44.963Z,97372.75
2023-01-10T12:03:19.986Z,97366.16
2023-01-10T12:05:56.749Z,97326.84
2023-01-10T12:08:29.889Z,97369.09
2023-01-10T12:11:01.922Z,97366.53
2023-01-10T12:13:31.951Z,97326.97
2023-01-10T12:16:22.479Z,97387.31
2023-01-10T12:18:51.848Z,97376.66
2023-01-10T12:21:27.216Z,97385.09
2023-01-10T12:24:00.300Z,97296.13
2023-01-10T12:26:32.188Z,97398.06
2023-01-10T12:29:08.798Z,97394.47
2023-01-10T12:31:40.766Z,97406.44
2023-01-10T12:34:16.878Z,97384.19
2023-01-10T12:36:55.392Z,97258.56
2023-01-10T12:39:28.999Z,97408.50
2023-01-10T12:42:27.248Z,97386.72
2023-01-10T12:45:01.706Z,97372.00
2023-01-10T12:47:33.798Z,97403.28
2023-01-10T12:50:07.495Z,97402.34
2023-01-10T12:52:45.838Z,97407.25
2023-01-10T12:55:17.382Z,97416.38
2023-01-10T12:57:51.867Z,97411.94
2023-01-10T13:00:25.092Z,97416.25
2023-01-10T13:02:57.939Z,97414.47
2023-01-10T13:05:28.983Z,97346.38
2023-01-10T13:08:04.680Z,97430.31
2023-01-10T13:10:44.522Z,97433.78
2023-01-10T13:13:21.765Z,97412.28
2023-01-10T13:15:54.894Z,97420.28
2023-01-10T13:18:27.538Z,97419.19
2023-01-10T13:21:09.001Z,97426.03
2023-01-10T13:23:46.944Z,97431.91
2023-01-10T13:26:17.125Z,97432.56
2023-01-10T13:28:57.096Z,97427.47
2023-01-10T13:31:27.893Z,97433.72
2023-01-10T13:33:58.104Z,97445.34
2023-01-10T13:36:29.744Z,97437.28
2023-01-10T13:39:01.170Z,97441.44
2023-01-10T13:42:32.729Z,97451.44
2023-01-10T13:45:23.158Z,97438.19
2023-01-10T13:48:05.377Z,97461.50
2023-01-10T13:50:59.391Z,97458.00
2023-01-10T13:53:59.662Z,97460.69
2023-01-10T13:56:40.902Z,97465.28
2023-01-10T13:59:31.775Z,97469.50
2023-01-10T14:02:28.315Z,97477.19
2023-01-10T14:04:59.029Z,97490.69
2023-01-10T14:07:29.901Z,97476.56
2023-01-10T14:10:04.763Z,97507.25
2023-01-10T14:12:39.781Z,97506.72
2023-01-10T14:15:21.601Z,97513.94
2023-01-10T14:18:00.568Z,97523.50
2023-01-10T14:20:31.173Z,97515.72
2023-01-10T14:23:06.272Z,97472.38
2023-01-10T14:25:37.123Z,97470.25
2023-01-10T14:28:19.234Z,97553.66
2023-01-10T14:31:00.758Z,97529.31
2023-01-10T14:33:29.859Z,97561.72
2023-01-10T14:36:02.916Z,97493.94
2023-01-10T14:38:34.129Z,97556.75
2023-01-10T14:41:05.612Z,97591.69
2023-01-10T14:43:43.889Z,97584.13
2023-01-10T14:46:15.634Z,97587.72
2023-01-10T14:48:51.076Z,97579.16
2023-01-10T14:51:23.929Z,97458.16
2023-01-10T14:54:02.949Z,97578.56
2023-01-10T14:56:37.531Z,97584.91
2023-01-10T14:59:20.001Z,97577.41
2023-01-10T15:01:49.730Z,97582.59
2023-01-10T15:04:19.584Z,97586.06
2023-01-10T15:06:56.043Z,97594.88
2023-01-10T15:09:24.375Z,97602.78
2023-01-10T15:11:53.893Z,97592.53
2023-01-10T15:14:27.122Z,97577.34
2023-01-10T15:17:00.170Z,97569.53
2023-01-10T15:19:32.185Z,97626.69
2023-01-10T15:22:00.608Z,97603.44
2023-01-10T15:24:34.573Z,97632.84
2023-01-10T15:27:04.832Z,97637.16
2023-01-10T15:29:35.269Z,97622.75
2023-01-10T15:32:12.136Z,97633.91
2023-01-10T15:34:42.414Z,97657.34
2023-01-10T15:37:20.689Z,97665.09
2023-01-10T15:39:49.523Z,97673.84
2023-01-10T15:42:21.525Z,97668.56
2023-01-10T15:44:55.892Z,97672.88
2023-01-10T15:47:37.222Z,97663.59
2023-01-10T15:50:20.002Z,97693.97
2023-01-10T15:52:53.318Z,97687.06
2023-01-10T15:55:40.969Z,97706.13
2023-01-10T15:58:18.981Z,97710.50
2023-01-10T16:00:51.024Z,97697.66
2023-01-10T16:03:25.063Z,97717.63
2023-01-10T16:05:56.531Z,97704.63
2023-01-10T16:08:26.849Z,97717.56
2023-01-10T16:10:58.612Z,97727.97
2023-01-10T16:13:31.531Z,97677.91
2023-01-10T16:16:03.422Z,97621.28
2023-01-10T16:18:32.153Z,97732.47
2023-01-10T16:21:04.170Z,97728.13
2023-01-10T16:23:35.673Z,97735.06
2023-01-10T16:26:08.498Z,97669.69
2023-01-10T16:28:38.072Z,97740.38
2023-01-10T16:31:11.883Z,97728.22
2023-01-10T16:33:41.233Z,97746.47
2023-01-10T16:36:16.270Z,97712.88
2023-01-10T16:38:45.192Z,97698.41
2023-01-10T16:41:31.566Z,97755.41
2023-01-10T16:46:26.676Z,97749.13
2023-01-10T16:48:55.162Z,97747.72
2023-01-10T16:51:25.574Z,97745.81
2023-01-10T16:53:53.805Z,97757.06
2023-01-10T16:56:23.844Z,97765.81
2023-01-10T16:58:53.347Z,97714.94
2023-01-10T17:01:24.690Z,97708.97
2023-01-10T17:03:54.705Z,97757.16
2023-01-10T17:06:23.074Z,97782.28
2023-01-10T17:08:51.313Z,97761.63
2023-01-10T17:11:25.214Z,97778.06
2023-01-10T17:13:53.786Z,97781.66
2023-01-10T17:16:22.159Z,97785.13
2023-01-10T17:18:50.617Z,97784.22
2023-01-10T17:21:22.590Z,97735.19
2023-01-10T17:23:52.143Z,97729.97
2023-01-10T17:26:21.374Z,97761.97
2023-01-10T17:28:50.018Z,97759.63
2023-01-10T17:31:19.928Z,97739.66
2023-01-10T17:33:49.242Z,97798.47
2023-01-10T17:36:19.315Z,97799.44
2023-01-10T17:38:49.653Z,97833.16
2023-01-10T17:41:17.971Z,97826.31
2023-01-10T17:43:46.202Z,97815.94
2023-01-10T17:46:16.672Z,97813.31
2023-01-10T17:48:45.110Z,97817.66
2023-01-10T17:51:13.588Z,97810.09
2023-01-10T17:53:41.996Z,97701.25
2023-01-10T17:56:12.137Z,97818.69
2023-01-10T17:58:40.414Z,97830.03
2023-01-10T18:01:15.518Z,97797.25
2023-01-10T18:03:44.332Z,97840.47
2023-01-10T18:06:22.823Z,97831.81
2023-01-10T18:08:51.896Z,97838.84
2023-01-10T18:11:21.732Z,97819.97
2023-01-10T18:13:49.991Z,97790.69
2023-01-10T18:16:18.309Z,97832.06
2023-01-10T18:18:46.604Z,97794.00
2023-01-10T18:21:16.841Z,97835.41
2023-01-10T18:23:45.282Z,97826.72
2023-01-10T18:26:14.756Z,97850.94
2023-01-10T18:28:45.842Z,97853.47
2023-01-10T18:31:16.087Z,97855.19
2023-01-10T18:33:44.728Z,97845.81
2023-01-10T18:36:16.039Z,97873.50
2023-01-10T18:38:44.654Z,97863.16
2023-01-10T18:41:13.062Z,97881.41
2023-01-10T18:43:41.425Z,97859.63
2023-01-10T18:46:13.024Z,97871.72
2023-01-10T18:48:41.459Z,97869.06
2023-01-10T18:51:12.517Z,97838.94
2023-01-10T18:53:41.338Z,97879.53
2023-01-10T18:56:10.889Z,97854.41
2023-01-10T18:58:41.057Z,97876.03
2023-01-10T19:01:12.141Z,97886.34
2023-01-10T19:03:41.108Z,97882.09
2023-01-10T19:06:12.251Z,97893.31
2023-01-10T19:08:40.690Z,97880.31
2023-01-10T19:11:15.278Z,97888.09
2023-01-10T19:13:44.665Z,97881.31
2023-01-10T19:16:16.434Z,97836.38
2023-01-10T19:18:44.907Z,97825.16
2023-01-10T19:21:16.162Z,97883.94
2023-01-10T19:23:45.099Z,97895.97
2023-01-10T19:26:14.096Z,97892.53
2023-01-10T19:28:43.135Z,97884.81
2023-01-10T19:31:17.716Z,97882.28
2023-01-10T19:33:47.786Z,97907.38
2023-01-10T19:36:17.018Z,97905.66
2023-01-10T19:38:45.668Z,97896.13
2023-01-10T19:41:14.231Z,97838.22
2023-01-10T19:43:42.572Z,97903.06
2023-01-10T19:46:13.014Z,97927.38
2023-01-10T19:48:42.777Z,97920.47
2023-01-10T19:51:13.184Z,97871.19
2023-01-10T19:53:45.601Z,97900.59
2023-01-10T19:56:18.387Z,97911.78
2023-01-10T19:58:46.992Z,97908.28
2023-01-10T20:01:17.688Z,97910.03
2023-01-10T20:03:47.940Z,97917.84
2023-01-10T20:06:18.290Z,97929.09
2023-01-10T20:08:47.729Z,97921.28
2023-01-10T20:11:16.936Z,97909.22
2023-01-10T20:13:45.834Z,97898.91
2023-01-10T20:16:15.981Z,97799.50
2023-01-10T20:18:44.595Z,97906.66
2023-01-10T20:21:16.857Z,97880.69
2023-01-10T20:23:45.980Z,97914.44
2023-01-10T20:26:16.725Z,97857.41
2023-01-10T20:28:45.913Z,97923.09
2023-01-10T20:31:16.910Z,97924.88
2023-01-10T20:33:45.223Z,97936.16
2023-01-10T20:36:17.731Z,97838.47
2023-01-10T20:38:46.129Z,97930.09
2023-01-10T20:41:16.229Z,97930.13
2023-01-10T20:43:45.299Z,97931.00
2023-01-10T20:46:15.699Z,97935.28
2023-01-10T20:48:44.765Z,97924.06
2023-01-10T20:51:16.079Z,97943.06
2023-01-10T20:53:44.780Z,97938.78
2023-01-10T20:56:15.195Z,97924.09
2023-01-10T20:58:43.523Z,97919.78
2023-01-10T21:01:25.056Z,97934.50
2023-01-10T21:04:01.370Z,97939.69
2023-01-10T21:06:31.119Z,97878.28
2023-01-10T21:09:00.619Z,97949.22
2023-01-10T21:11:29.133Z,97951.81
2023-01-10T21:13:57.391Z,97932.72
2023-01-10T21:16:25.867Z,97941.38
2023-01-10T21:18:54.169Z,97931.81
2023-01-10T21:21:23.714Z,97925.72
2023-01-10T21:23:55.240Z,97944.78
2023-01-10T21:26:24.098Z,97951.66
2023-01-10T21:28:52.278Z,97948.16
2023-01-10T21:31:22.002Z,97938.63
2023-01-10T21:33:50.698Z,97924.72
2023-01-10T21:36:19.210Z,97943.69
2023-01-10T21:38:47.969Z,97945.41
2023-01-10T21:41:40.405Z,97940.28
2023-01-10T21:44:09.028Z,97948.06
2023-01-10T21:46:37.459Z,97927.28
2023-01-10T21:49:06.613Z,97954.97
2023-01-10T21:51:34.873Z,97961.84
2023-01-10T21:54:03.155Z,97955.69
2023-01-10T21:56:33.078Z,97964.28
2023-01-10T21:59:01.352Z,97969.34
2023-01-10T22:01:29.723Z,97946.81
2023-01-10T22:03:57.944Z,97967.66
2023-01-10T22:06:26.216Z,97966.81
2023-01-10T22:08:54.601Z,97936.47
2023-01-10T22:11:22.828Z,97966.78
2023-01-10T22:13:53.973Z,97963.34
2023-01-10T22:16:22.396Z,97974.56
2023-01-10T22:18:50.648Z,97969.44
2023-01-10T22:21:19.934Z,97964.09
2023-01-10T22:23:48.432Z,97964.06
2023-01-10T22:26:17.625Z,97969.16
2023-01-10T22:28:45.806Z,97963.94
2023-01-10T22:31:15.474Z,97964.75
2023-01-10T22:33:44.130Z,97981.13
2023-01-10T22:36:16.536Z,97984.56
2023-01-10T22:38:45.733Z,97981.06
2023-01-10T22:41:16.148Z,97989.56
2023-01-10T22:43:44.855Z,97962.66
2023-01-10T22:46:16.020Z,97960.09
2023-01-10T22:48:45.207Z,97962.63
2023-01-10T22:51:13.438Z,97943.56
2023-01-10T22:53:41.763Z,97967.72
2023-01-10T22:56:11.805Z,97968.63
2023-01-10T22:58:40.001Z,97962.53
2023-01-10T23:01:09.187Z,97969.31
2023-01-10T23:03:38.856Z,97955.50
2023-01-10T23:06:07.261Z,97987.47
2023-01-10T23:08:35.761Z,97977.00
2023-01-10T23:11:04.201Z,97976.97
2023-01-10T23:13:32.757Z,97932.56
2023-01-10T23:16:02.909Z,97975.03
2023-01-10T23:18:31.528Z,97979.34
2023-01-10T23:21:01.607Z,97981.03
2023-01-10T23:23:32.192Z,97955.06
2023-01-10T23:26:02.743Z,97999.00
2023-01-10T23:28:31.862Z,97994.78
2023-01-10T23:31:00.310Z,97983.69
2023-01-10T23:33:28.510Z,97988.88
2023-01-10T23:35:56.872Z,97957.59
2023-01-10T23:38:27.159Z,97983.72
2023-01-10T23:40:55.476Z,97988.03
2023-01-10T23:43:23.672Z,97979.53
2023-01-10T23:45:52.281Z,97979.50
2023-01-10T23:48:20.683Z,97981.34
2023-01-10T23:50:49.846Z,97982.13
2023-01-10T23:53:19.080Z,97840.69
2023-01-10T23:55:48.732Z,97985.38
2023-01-10T23:58:17.176Z,97974.09
